Time;durP1;ratioP1;P1;durP2;ratioP2;P2;SDS_P1;SDS_P2;PMS_P1;PMS_P2;Temp;Humidity;BMP_temperature;BMP_pressure;BME280_temperature;BME280_humidity;BME280_pressure;Samples;Min_cycle;Max_cycle;Signal;HPM_P1;HPM_P2
2022/12/26 00:02:14;;;;;;;61.78;22.67;;;;;;;8.49;100.00;100862.06;5051307;28;20429;-75
2022/12/26 00:04:40;;;;;;;60.63;22.75;;;;;;;8.47;100.00;100858.56;5050126;28;20033;-74
2022/12/26 00:07:05;;;;;;;54.08;22.13;;;;;;;8.48;100.00;100860.28;5052140;28;20464;-74
2022/12/26 00:09:32;;;;;;;54.67;21.13;;;;;;;8.48;100.00;100860.28;5035882;28;20021;-74
2022/12/26 00:11:57;;;;;;;61.03;22.50;;;;;;;8.50;100.00;100861.25;5043246;28;20457;-75
2022/12/26 00:14:22;;;;;;;55.10;21.60;;;;;;;8.47;100.00;100869.03;5037157;28;20035;-73
2022/12/26 00:16:48;;;;;;;48.58;20.65;;;;;;;8.48;100.00;100863.81;5039939;28;20048;-74
2022/12/26 00:19:13;;;;;;;54.63;21.23;;;;;;;8.50;100.00;100874.34;5038983;28;20096;-74
2022/12/26 00:21:39;;;;;;;51.80;21.92;;;;;;;8.47;100.00;100869.91;5054941;28;20032;-73
2022/12/26 00:24:12;;;;;;;56.30;21.90;;;;;;;8.47;100.00;100882.16;5047658;28;21819;-73
2022/12/26 00:26:38;;;;;;;54.10;19.98;;;;;;;8.47;100.00;100879.53;5036082;28;20029;-72
2022/12/26 00:29:03;;;;;;;51.15;21.75;;;;;;;8.45;100.00;100876.88;5046686;28;20075;-74
2022/12/26 00:31:31;;;;;;;51.90;20.63;;;;;;;8.50;100.00;100887.47;5031661;28;20071;-73
2022/12/26 00:33:57;;;;;;;57.00;21.75;;;;;;;8.50;100.00;100884.84;5047245;28;20045;-73
2022/12/26 00:36:29;;;;;;;55.47;23.05;;;;;;;8.46;100.00;100878.63;5050351;28;20029;-73
2022/12/26 00:38:58;;;;;;;54.20;23.38;;;;;;;8.48;100.00;100886.53;5049123;28;20111;-74
2022/12/26 00:41:23;;;;;;;56.03;21.83;;;;;;;8.43;100.00;100874.16;5044498;28;20024;-73
2022/12/26 00:43:49;;;;;;;55.67;23.83;;;;;;;8.47;100.00;100879.53;5036282;28;20128;-74
2022/12/26 00:46:16;;;;;;;57.08;22.80;;;;;;;8.47;100.00;100874.28;5039624;28;20087;-73
2022/12/26 00:48:41;;;;;;;60.78;22.10;;;;;;;8.46;100.00;100872.50;5056745;28;20504;-73
2022/12/26 00:51:07;;;;;;;60.50;23.33;;;;;;;8.44;100.00;100875.94;5049697;28;20021;-72
2022/12/26 00:53:32;;;;;;;56.15;22.73;;;;;;;8.43;100.00;100874.16;5046347;28;20234;-74
2022/12/26 00:55:58;;;;;;;52.15;22.00;;;;;;;8.38;100.00;100870.53;5034379;28;20496;-73
2022/12/26 00:58:24;;;;;;;53.33;22.95;;;;;;;8.37;100.00;100860.91;5046049;28;20036;-72
2022/12/26 01:00:53;;;;;;;51.65;22.40;;;;;;;8.39;100.00;100851.31;5037604;28;20459;-74
2022/12/26 01:03:20;;;;;;;63.13;22.45;;;;;;;8.40;100.00;100850.47;5042599;28;20053;-73
2022/12/26 01:05:47;;;;;;;60.35;24.63;;;;;;;8.39;100.00;100856.56;5043052;28;20460;-72
2022/12/26 01:08:13;;;;;;;64.50;23.17;;;;;;;8.37;100.00;100860.00;5035340;28;20160;-73
2022/12/26 01:10:43;;;;;;;54.40;23.52;;;;;;;8.37;100.00;100860.00;5049454;28;20055;-73
2022/12/26 01:13:08;;;;;;;67.28;24.67;;;;;;;8.38;100.00;100870.53;5045577;28;20504;-73
2022/12/26 01:15:33;;;;;;;61.55;23.35;;;;;;;8.38;100.00;100857.44;5049233;28;20029;-73
2022/12/26 01:18:00;;;;;;;57.55;23.58;;;;;;;8.37;100.00;100871.38;5046512;28;20512;-73
2022/12/26 01:20:25;;;;;;;49.17;21.73;;;;;;;8.37;100.00;100878.34;5037064;28;20025;-73
2022/12/26 01:22:51;;;;;;;47.53;20.88;;;;;;;8.38;100.00;100875.78;5045123;28;20116;-73
2022/12/26 01:25:17;;;;;;;46.17;19.75;;;;;;;8.38;100.00;100857.44;5043372;28;20036;-74
2022/12/26 01:27:42;;;;;;;53.13;20.50;;;;;;;8.34;100.00;100860.81;5047989;28;20416;-74
2022/12/26 01:30:11;;;;;;;44.65;19.10;;;;;;;8.37;100.00;100862.63;5049677;28;20381;-74
2022/12/26 01:32:39;;;;;;;40.30;18.80;;;;;;;8.34;100.00;100862.53;5066044;28;20032;-72
2022/12/26 01:35:05;;;;;;;38.97;16.95;;;;;;;8.31;100.00;100859.84;5050918;28;20116;-74
2022/12/26 01:37:32;;;;;;;44.85;17.55;;;;;;;8.28;100.00;100864.16;5043987;28;20583;-73
2022/12/26 01:39:57;;;;;;;46.83;18.05;;;;;;;8.26;100.00;100868.47;5039289;28;20021;-73
2022/12/26 01:42:25;;;;;;;38.65;17.02;;;;;;;8.29;100.00;100867.69;5047654;28;20039;-72
2022/12/26 01:45:02;;;;;;;44.58;17.67;;;;;;;8.34;100.00;100871.31;5040887;28;20087;-73
2022/12/26 01:47:42;;;;;;;49.55;18.42;;;;;;;8.37;100.00;100871.38;5048145;28;20147;-73
2022/12/26 01:50:25;;;;;;;39.25;17.65;;;;;;;8.37;100.00;100867.84;5049898;28;20491;-73
2022/12/26 01:52:51;;;;;;;32.97;15.40;;;;;;;8.39;100.00;100882.78;5049323;28;20032;-74
2022/12/26 01:55:24;;;;;;;39.00;16.23;;;;;;;8.39;100.00;100885.41;5053102;28;20029;-73
2022/12/26 01:58:03;;;;;;;35.20;16.38;;;;;;;8.39;100.00;100882.78;5048092;28;20037;-75
2022/12/26 02:00:30;;;;;;;30.27;14.85;;;;;;;8.37;100.00;100874.00;5040873;28;20028;-73
2022/12/26 02:05:41;;;;;;;;;;;;;;;8.36;100.00;100866.97;5046201;28;20041;-73
2022/12/26 02:08:22;;;;;;;27.55;14.05;;;;;;;8.39;100.00;100872.28;5050733;28;19913;-74
2022/12/26 02:11:14;;;;;;;28.85;13.98;;;;;;;8.39;100.00;100869.69;5050605;28;20033;-73
2022/12/26 02:13:40;;;;;;;34.63;15.07;;;;;;;8.43;100.00;100874.16;5039792;28;20061;-74
2022/12/26 02:16:08;;;;;;;27.73;15.10;;;;;;;8.42;100.00;100861.00;5048050;28;20429;-73
2022/12/26 02:18:33;;;;;;;25.25;13.77;;;;;;;8.44;100.00;100860.19;5049747;28;20658;-73
2022/12/26 02:21:08;;;;;;;27.17;14.27;;;;;;;8.42;100.00;100851.41;5045459;28;20028;-73
2022/12/26 02:23:46;;;;;;;27.10;14.43;;;;;;;8.44;100.00;100854.06;5043757;28;20108;-73
2022/12/26 02:26:36;;;;;;;29.35;15.30;;;;;;;8.50;100.00;100858.63;5052229;28;20021;-74
2022/12/26 02:29:20;;;;;;;27.83;14.75;;;;;;;8.51;100.00;100847.28;5051852;28;21775;-74
2022/12/26 02:31:57;;;;;;;;;;;;;;;8.51;100.00;100839.41;5067703;28;20052;-73
2022/12/26 02:34:34;;;;;;;28.85;14.63;;;;;;;8.49;100.00;100842.00;5048553;28;19924;-72
2022/12/26 02:37:23;;;;;;;34.05;14.68;;;;;;;8.54;100.00;100845.59;5036290;28;20047;-74
2022/12/26 02:39:57;;;;;;;31.20;15.60;;;;;;;8.54;100.00;100850.84;5050613;28;20081;-74
2022/12/26 02:42:37;;;;;;;29.45;15.93;;;;;;;8.58;100.00;100849.19;5055682;28;20147;-72
2022/12/26 02:48:43;;;;;;;33.42;18.42;;;;;;;8.56;100.00;100850.88;5048483;28;20044;-73
2022/12/26 03:13:09;;;;;;;31.38;17.00;;;;;;;8.49;100.00;100854.22;5034188;28;20066;-73
2022/12/26 03:14:46;;;;;;;34.95;18.02;;;;;;;8.16;100.00;100865.56;5033117;28;20092;-71
2022/12/26 03:17:20;;;;;;;31.30;16.75;;;;;;;8.14;100.00;100867.25;5040386;28;20029;-73
2022/12/26 03:19:59;;;;;;;28.10;16.85;;;;;;;8.10;100.00;100879.41;5060273;28;20027;-74
2022/12/26 03:22:44;;;;;;;26.90;16.08;;;;;;;8.07;100.00;100864.50;5052578;28;20091;-73
2022/12/26 03:28:03;;;;;;;25.92;15.45;;;;;;;8.01;100.00;100839.84;5018832;28;20068;-74
2022/12/26 03:30:47;;;;;;;24.35;15.32;;;;;;;8.06;100.00;100836.50;5052670;28;20029;-74
2022/12/26 03:36:20;;;;;;;23.55;13.95;;;;;;;8.06;100.00;100840.88;5037188;28;20040;-74
2022/12/26 03:38:57;;;;;;;27.27;15.77;;;;;;;8.07;100.00;100837.38;5037870;28;20075;-74
2022/12/26 04:20:19;;;;;;;10.10;5.88;;;;;;;8.01;100.00;100863.44;5048963;28;20135;-74
2022/12/26 04:45:39;;;;;;;8.95;4.90;;;;;;;8.02;100.00;100847.75;5040884;28;20052;-74
2022/12/26 04:50:50;;;;;;;8.30;4.50;;;;;;;8.01;100.00;100832.84;5035415;28;20083;-73
2022/12/26 04:53:16;;;;;;;9.27;4.38;;;;;;;8.06;100.00;100826.00;5031342;28;20028;-74
2022/12/26 04:55:41;;;;;;;12.73;4.53;;;;;;;8.07;100.00;100827.78;5032253;28;20112;-73
2022/12/26 04:58:06;;;;;;;9.60;4.22;;;;;;;8.02;100.00;100824.16;5048840;28;20024;-74
2022/12/26 05:00:32;;;;;;;7.22;3.97;;;;;;;8.04;100.00;100814.59;5048936;28;20025;-75
2022/12/26 05:11:29;;;;;;;3.85;3.00;;;;;;;8.10;100.00;100824.38;5048709;28;20381;-73
2022/12/26 05:13:56;;;;;;;5.57;2.80;;;;;;;8.09;100.00;100826.09;5046536;28;20025;-74
2022/12/26 05:30:21;;;;;;;9.65;2.75;;;;;;;8.21;100.00;100824.66;5047021;28;20098;-74
2022/12/26 05:35:31;;;;;;;;;;;;;;;8.26;100.00;100830.88;5049140;28;20618;-74
2022/12/26 05:37:57;;;;;;;13.02;3.08;;;;;;;8.23;100.00;100841.28;5052463;28;20003;-74
2022/12/26 05:40:22;;;;;;;10.13;2.97;;;;;;;8.25;100.00;100831.75;5051373;28;20380;-74
2022/12/26 05:42:48;;;;;;;6.97;2.58;;;;;;;8.23;100.00;100828.19;5054574;28;20609;-74
2022/12/26 05:45:13;;;;;;;6.88;2.72;;;;;;;8.25;100.00;100824.75;5055132;28;20037;-73
2022/12/26 05:47:39;;;;;;;7.75;2.53;;;;;;;8.27;100.00;100835.28;5053557;28;20029;-73
2022/12/26 05:50:04;;;;;;;7.25;3.30;;;;;;;8.29;100.00;100833.59;5043403;28;20108;-74
2022/12/26 05:52:30;;;;;;;10.52;2.67;;;;;;;8.26;100.00;100830.88;5040865;28;20049;-73
2022/12/26 05:54:55;;;;;;;8.85;3.35;;;;;;;8.32;100.00;100831.03;5049687;28;20029;-74
2022/12/26 05:57:20;;;;;;;5.45;2.25;;;;;;;8.33;100.00;100835.44;5052164;28;20447;-73
2022/12/26 05:59:46;;;;;;;6.60;2.60;;;;;;;8.32;100.00;100828.44;5053099;28;20025;-72
2022/12/26 06:02:11;;;;;;;4.15;2.50;;;;;;;8.33;100.00;100832.81;5053386;28;20037;-73
2022/12/26 06:04:37;;;;;;;4.85;2.30;;;;;;;8.38;100.00;100835.56;5051468;28;20032;-72
2022/12/26 06:07:03;;;;;;;7.75;2.55;;;;;;;8.37;100.00;100844.25;5053266;28;20021;-73
2022/12/26 06:09:28;;;;;;;6.93;2.50;;;;;;;8.32;100.00;100838.91;5050405;28;20053;-73
2022/12/26 06:11:54;;;;;;;7.47;3.38;;;;;;;8.38;100.00;100844.31;5048837;28;20146;-73
2022/12/26 06:14:19;;;;;;;9.30;2.92;;;;;;;8.39;100.00;100848.69;5057447;28;20075;-71
2022/12/26 06:16:44;;;;;;;6.20;2.50;;;;;;;8.37;100.00;100850.41;5061592;28;20036;-72
2022/12/26 06:19:10;;;;;;;6.68;2.92;;;;;;;8.40;100.00;100842.63;5053659;28;20033;-73
2022/12/26 06:21:35;;;;;;;11.07;3.80;;;;;;;8.40;100.00;100855.72;5048899;28;20465;-72
2022/12/26 06:24:00;;;;;;;7.60;2.92;;;;;;;8.40;100.00;100847.84;5052431;28;20029;-71
2022/12/26 06:26:26;;;;;;;7.43;3.17;;;;;;;8.40;100.00;100847.84;5048929;28;20107;-73
2022/12/26 06:28:51;;;;;;;6.15;2.88;;;;;;;8.46;100.00;100851.53;5057420;28;20029;-73
2022/12/26 06:31:19;;;;;;;6.20;2.78;;;;;;;8.48;100.00;100848.09;5056703;28;20057;-72
2022/12/26 06:33:46;;;;;;;12.73;3.53;;;;;;;8.51;100.00;100845.53;5052220;28;20036;-74
2022/12/26 06:36:14;;;;;;;3.85;2.88;;;;;;;8.52;100.00;100841.16;5052366;28;20033;-73
2022/12/26 06:38:43;;;;;;;5.40;3.10;;;;;;;8.54;100.00;100839.50;5052441;28;20036;-73
2022/12/26 06:41:11;;;;;;;10.65;3.50;;;;;;;8.52;100.00;100842.06;5063764;28;20954;-74
2022/12/26 06:43:39;;;;;;;6.50;3.30;;;;;;;8.51;100.00;100847.28;5051521;28;20032;-74
2022/12/26 06:46:09;;;;;;;6.85;2.92;;;;;;;8.53;100.00;100848.19;5046105;28;20082;-73
2022/12/26 06:48:38;;;;;;;7.88;3.50;;;;;;;8.53;100.00;100837.69;5052060;28;20032;-74
2022/12/26 06:51:04;;;;;;;7.35;3.25;;;;;;;8.55;100.00;100851.75;5053781;28;20377;-73
2022/12/26 06:53:30;;;;;;;9.65;3.70;;;;;;;8.59;100.00;100858.84;5063270;28;20400;-71
2022/12/26 06:56:04;;;;;;;6.22;2.78;;;;;;;8.62;100.00;100851.06;5057058;28;20028;-72
2022/12/26 06:58:30;;;;;;;6.55;3.00;;;;;;;8.57;100.00;100850.94;5044704;28;20060;-73
2022/12/26 07:01:02;;;;;;;7.80;3.03;;;;;;;8.57;100.00;100845.72;5044028;28;20477;-73
2022/12/26 07:03:28;;;;;;;8.30;3.08;;;;;;;8.61;100.00;100851.88;5051101;28;20040;-73
2022/12/26 07:05:53;;;;;;;7.82;3.20;;;;;;;8.64;100.00;100848.47;5050802;28;20029;-72
2022/12/26 07:08:18;;;;;;;5.88;3.40;;;;;;;8.60;100.00;100850.16;5052954;28;20551;-73
2022/12/26 07:10:43;;;;;;;8.20;2.88;;;;;;;8.60;100.00;100844.91;5054409;28;20073;-73
2022/12/26 07:13:09;;;;;;;4.70;2.78;;;;;;;8.56;100.00;100833.44;5052307;28;20481;-73
2022/12/26 07:15:34;;;;;;;11.73;3.03;;;;;;;8.54;100.00;100834.25;5053850;28;20024;-73
2022/12/26 07:17:59;;;;;;;15.02;4.25;;;;;;;8.51;100.00;100847.28;5046723;28;20057;-73
2022/12/26 07:20:25;;;;;;;6.93;2.92;;;;;;;8.56;100.00;100849.16;5051765;28;20017;-72
2022/12/26 07:22:50;;;;;;;8.75;3.22;;;;;;;8.54;100.00;100848.22;5042797;28;20036;-72
2022/12/26 07:25:20;;;;;;;14.75;3.22;;;;;;;8.56;100.00;100854.41;5044483;28;20453;-73
2022/12/26 07:27:45;;;;;;;10.80;3.10;;;;;;;8.56;100.00;100859.66;5051068;28;20025;-74
2022/12/26 07:30:11;;;;;;;9.10;3.78;;;;;;;8.56;100.00;100853.50;5049111;28;20017;-74
2022/12/26 07:32:36;;;;;;;6.40;2.97;;;;;;;8.55;100.00;100867.50;5058608;28;20423;-73
2022/12/26 07:35:02;;;;;;;10.25;2.97;;;;;;;8.51;100.00;100865.66;5046633;28;20025;-73
2022/12/26 07:37:27;;;;;;;9.13;3.47;;;;;;;8.53;100.00;100861.31;5068076;28;20426;-72
2022/12/26 07:39:52;;;;;;;12.18;2.50;;;;;;;8.54;100.00;100876.22;5046629;28;20025;-73
2022/12/26 07:42:19;;;;;;;9.25;2.75;;;;;;;8.55;100.00;100860.50;5044918;28;20037;-74
2022/12/26 07:44:44;;;;;;;9.13;2.92;;;;;;;8.60;100.00;100873.75;5045862;28;20025;-73
2022/12/26 07:47:10;;;;;;;8.65;2.70;;;;;;;8.61;100.00;100862.38;5060450;28;20117;-73
2022/12/26 07:49:35;;;;;;;5.55;2.75;;;;;;;8.59;100.00;100866.72;5056487;28;20016;-75
2022/12/26 07:52:01;;;;;;;5.20;2.38;;;;;;;8.55;100.00;100873.63;5059421;28;20528;-74
2022/12/26 07:54:28;;;;;;;8.38;2.70;;;;;;;8.58;100.00;100878.06;5062302;28;20504;-74
2022/12/26 07:56:54;;;;;;;9.18;2.95;;;;;;;8.59;100.00;100890.31;5052503;28;20040;-73
2022/12/26 07:59:20;;;;;;;11.82;3.20;;;;;;;8.58;100.00;100891.16;5063628;28;20032;-74
2022/12/26 08:01:45;;;;;;;8.70;3.40;;;;;;;8.62;100.00;100908.75;5059954;28;20044;-75
2022/12/26 08:04:11;;;;;;;10.38;3.28;;;;;;;8.64;100.00;100909.69;5065044;28;20380;-74
2022/12/26 08:06:36;;;;;;;10.38;3.45;;;;;;;8.64;100.00;100925.44;5065033;28;20111;-74
2022/12/26 08:09:03;;;;;;;6.18;2.58;;;;;;;8.60;100.00;100926.22;5057284;28;20027;-74
2022/12/26 08:11:32;;;;;;;13.52;3.28;;;;;;;8.56;100.00;100927.84;5062987;28;20021;-73
2022/12/26 08:13:57;;;;;;;8.10;3.45;;;;;;;8.50;100.00;100947.78;5050732;28;20029;-74
2022/12/26 08:16:25;;;;;;;14.13;3.55;;;;;;;8.43;100.00;100934.47;5042295;28;20070;-74
2022/12/26 08:18:56;;;;;;;6.88;2.13;;;;;;;8.38;100.00;100946.59;5049357;28;20429;-74
2022/12/26 08:21:22;;;;;;;8.98;2.50;;;;;;;8.31;100.00;100946.38;5051164;28;20396;-72
2022/12/26 08:23:50;;;;;;;9.57;2.65;;;;;;;8.30;100.00;100960.31;5051477;28;20033;-74
2022/12/26 08:26:21;;;;;;;7.20;2.28;;;;;;;8.23;100.00;100960.16;5061914;28;20064;-73
2022/12/26 08:28:46;;;;;;;10.55;2.50;;;;;;;8.20;100.00;100969.66;5047310;28;20029;-73
2022/12/26 08:31:13;;;;;;;5.50;2.30;;;;;;;8.13;100.00;100972.97;5044998;28;20020;-75
2022/12/26 08:33:38;;;;;;;8.75;2.50;;;;;;;8.06;100.00;100970.16;5060983;28;20460;-74
2022/12/26 08:36:06;;;;;;;6.80;1.80;;;;;;;8.02;100.00;100989.25;5049786;28;20056;-73
2022/12/26 08:38:31;;;;;;;10.70;2.28;;;;;;;7.92;100.00;100985.47;5051132;28;20079;-72
2022/12/26 08:41:03;;;;;;;11.13;1.70;;;;;;;7.89;100.00;100989.72;5049185;28;20052;-73
2022/12/26 08:43:28;;;;;;;11.13;2.35;;;;;;;7.86;100.00;100981.78;5040836;28;20819;-73
2022/12/26 08:46:02;;;;;;;11.70;1.88;;;;;;;7.83;100.00;100989.56;5046818;28;20025;-75
2022/12/26 08:48:48;;;;;;;9.40;1.67;;;;;;;7.81;100.00;100996.47;5048148;28;20115;-74
2022/12/26 08:51:22;;;;;;;12.13;1.88;;;;;;;7.80;100.00;101010.41;5043445;28;20439;-74
2022/12/26 08:53:48;;;;;;;15.45;2.00;;;;;;;7.79;100.00;101029.59;5046915;28;20071;-73
2022/12/26 08:56:16;;;;;;;18.48;2.25;;;;;;;7.78;100.00;101048.78;5040461;28;20087;-74
2022/12/26 08:58:45;;;;;;;17.65;2.15;;;;;;;7.73;100.00;101077.44;5048774;28;20029;-74
2022/12/26 09:01:23;;;;;;;20.63;1.85;;;;;;;7.57;100.00;101086.53;5048913;28;20127;-74
2022/12/26 09:03:54;;;;;;;23.15;4.05;;;;;;;7.45;100.00;101091.34;5043406;28;20041;-74
2022/12/26 09:06:20;;;;;;;17.27;2.95;;;;;;;7.35;100.00;101105.88;5047516;28;20047;-75
2022/12/26 09:08:46;;;;;;;15.85;2.78;;;;;;;7.26;100.00;101112.56;5059051;28;20025;-73
2022/12/26 09:11:20;;;;;;;20.05;3.05;;;;;;;7.17;100.00;101112.25;5043780;28;20025;-74
2022/12/26 09:13:46;;;;;;;13.13;2.28;;;;;;;7.11;100.00;101121.59;5044173;28;20136;-74
2022/12/26 09:16:17;;;;;;;13.45;2.33;;;;;;;7.06;100.00;101129.31;5046675;28;20024;-74
2022/12/26 09:18:43;;;;;;;9.07;1.55;;;;;;;6.97;100.00;101139.44;5040301;28;20509;-76
2022/12/26 09:21:11;;;;;;;11.73;1.52;;;;;;;6.91;100.00;101138.38;5043779;28;20090;-75
2022/12/26 09:23:40;;;;;;;18.00;1.77;;;;;;;6.88;100.00;101156.59;5050771;28;20534;-75
2022/12/26 09:26:11;;;;;;;10.68;1.08;;;;;;;6.87;100.00;101153.94;5047838;28;20099;-75
2022/12/26 09:28:37;;;;;;;10.00;1.40;;;;;;;6.82;100.00;101176.41;5050546;28;20033;-76
2022/12/26 09:31:05;;;;;;;7.55;1.40;;;;;;;6.78;100.00;101174.50;5044555;28;20079;-73
2022/12/26 09:33:37;;;;;;;10.15;1.67;;;;;;;6.73;100.00;101188.28;5035567;28;20063;-74
2022/12/26 09:36:08;;;;;;;8.85;1.65;;;;;;;6.68;100.00;101195.06;5044450;28;20031;-72
2022/12/26 09:38:35;;;;;;;10.55;2.03;;;;;;;6.66;100.00;101198.47;5051874;28;20033;-72
2022/12/26 09:41:42;;;;;;;14.35;2.88;;;;;;;6.62;100.00;101207.94;5042417;28;20499;-74
2022/12/26 09:44:20;;;;;;;15.65;2.25;;;;;;;6.66;100.00;101217.69;5042065;28;20032;-74
2022/12/26 09:47:06;;;;;;;17.90;2.40;;;;;;;6.61;100.00;101219.22;5049066;28;20389;-75
2022/12/26 09:49:39;;;;;;;7.55;1.60;;;;;;;6.54;100.00;101211.97;5047204;28;20025;-74
2022/12/26 09:52:11;;;;;;;13.95;1.92;;;;;;;6.53;100.00;101218.03;5040657;28;20051;-74
2022/12/26 09:54:41;;;;;;;13.73;2.35;;;;;;;6.47;100.00;101236.06;5050009;28;20706;-73
2022/12/26 09:57:17;;;;;;;9.07;1.60;;;;;;;6.41;100.00;101242.84;5040803;28;20025;-73
2022/12/26 09:59:55;;;;;;;9.30;1.52;;;;;;;6.43;100.00;101255.09;5046999;28;20064;-74
2022/12/26 10:02:23;;;;;;;14.95;1.88;;;;;;;6.44;100.00;101249.03;5038749;28;20183;-74
2022/12/26 10:04:50;;;;;;;11.05;1.30;;;;;;;6.47;100.00;101249.16;5037744;28;20577;-73
2022/12/26 10:07:20;;;;;;;13.77;1.85;;;;;;;6.46;100.00;101249.97;5045677;28;20057;-74
2022/12/26 10:10:08;;;;;;;4.07;1.40;;;;;;;6.45;100.00;101256.06;5045587;28;20423;-73
2022/12/26 10:12:33;;;;;;;15.35;1.77;;;;;;;6.46;100.00;101260.41;5042668;28;20021;-72
2022/12/26 10:15:06;;;;;;;11.23;1.70;;;;;;;6.47;100.00;101262.22;5047960;28;20499;-74
2022/12/26 10:17:52;;;;;;;9.67;1.87;;;;;;;6.52;100.00;101258.06;5050847;28;20032;-74
2022/12/26 10:20:42;;;;;;;10.25;2.13;;;;;;;6.83;100.00;101268.00;5061802;28;20045;-72
2022/12/26 10:23:24;;;;;;;;;;;;;;;7.16;100.00;101269.22;5052280;28;20038;-74
2022/12/26 10:26:02;;;;;;;9.15;1.60;;;;;;;7.51;100.00;101277.50;5076546;28;19913;-74
2022/12/26 10:28:33;;;;;;;7.05;1.27;;;;;;;7.68;100.00;101273.75;5037302;28;20485;-74
2022/12/26 10:31:04;;;;;;;17.15;2.38;;;;;;;7.90;100.00;101287.59;5046216;28;20481;-72
2022/12/26 10:33:47;;;;;;;10.05;1.70;;;;;;;8.10;100.00;101288.28;5043678;28;20053;-73
2022/12/26 10:36:23;;;;;;;14.95;1.92;;;;;;;7.93;100.00;101299.09;5051598;28;20033;-72
2022/12/26 10:38:52;;;;;;;6.13;1.27;;;;;;;8.10;100.00;101293.53;5051689;28;20024;-75
2022/12/26 10:41:24;;;;;;;5.63;1.45;;;;;;;8.54;100.00;101301.09;5048761;28;20430;-72
2022/12/26 10:43:50;;;;;;;7.93;1.20;;;;;;;9.04;100.00;101309.66;5047992;28;20072;-74
2022/12/26 10:46:47;;;;;;;9.95;1.35;;;;;;;9.35;100.00;101305.31;5040336;28;20517;-73
2022/12/26 10:49:17;;;;;;;8.35;1.20;;;;;;;9.47;100.00;101309.13;5034125;28;20169;-73
2022/12/26 10:51:46;;;;;;;8.13;2.20;;;;;;;9.56;100.00;101315.56;5047983;28;20116;-73
2022/12/26 10:54:16;;;;;;;8.05;1.40;;;;;;;9.64;100.00;101307.00;5048104;28;20481;-74
2022/12/26 10:56:42;;;;;;;8.13;1.60;;;;;;;9.87;100.00;101324.28;5049438;28;20024;-73
2022/12/26 10:59:20;;;;;;;10.13;1.05;;;;;;;9.94;100.00;101325.31;5048199;28;20029;-74
2022/12/26 11:01:47;;;;;;;11.38;1.45;;;;;;;9.93;97.71;101328.84;5065412;28;20060;-72
2022/12/26 11:04:17;;;;;;;7.50;1.33;;;;;;;10.16;94.91;101344.31;5044287;28;20526;-73
2022/12/26 11:06:46;;;;;;;7.40;1.38;;;;;;;10.20;89.05;101343.53;5048369;28;20029;-73
2022/12/26 11:09:42;;;;;;;4.78;1.00;;;;;;;10.11;83.86;101350.34;5047449;28;20440;-74
2022/12/26 11:12:20;;;;;;;9.48;1.05;;;;;;;9.75;82.89;101353.75;5029632;28;20123;-73
2022/12/26 11:14:46;;;;;;;3.95;0.90;;;;;;;9.71;85.43;101369.38;5065373;28;20111;-73
2022/12/26 11:17:23;;;;;;;9.90;1.25;;;;;;;9.71;85.98;101365.03;5047393;28;20152;-73
2022/12/26 11:19:48;;;;;;;13.38;1.30;;;;;;;9.55;89.17;101361.06;5048164;28;20033;-73
2022/12/26 11:22:21;;;;;;;7.90;1.10;;;;;;;9.09;89.35;101368.44;5052803;28;20032;-73
2022/12/26 11:25:08;;;;;;;5.05;1.73;;;;;;;9.47;89.51;101366.94;5048785;28;20107;-74
2022/12/26 11:27:42;;;;;;;5.32;0.93;;;;;;;9.47;86.97;101356.41;5052602;28;20501;-74
2022/12/26 11:30:23;;;;;;;2.85;0.80;;;;;;;9.25;89.72;101367.19;5066989;28;20428;-73
2022/12/26 11:33:05;;;;;;;2.58;1.00;;;;;;;9.31;89.76;101379.63;5054398;28;20032;-73
2022/12/26 11:35:36;;;;;;;5.10;1.52;;;;;;;8.99;93.30;101379.50;5063059;28;20024;-73
2022/12/26 11:38:05;;;;;;;8.23;1.40;;;;;;;8.75;99.17;101377.88;5085932;28;20037;-72
2022/12/26 11:41:30;;;;;;;4.05;1.00;;;;;;;8.48;100.00;101384.81;5051608;28;20028;-73
2022/12/26 11:43:25;;;;;;;8.57;1.65;;;;;;;8.60;100.00;101390.50;5052484;28;20037;-74
2022/12/26 11:45:51;;;;;;;5.45;1.20;;;;;;;8.67;100.00;101387.22;5050383;28;20096;-72
2022/12/26 11:48:29;;;;;;;2.95;1.00;;;;;;;8.98;100.00;101388.22;5056475;28;20055;-74
2022/12/26 11:50:54;;;;;;;7.45;0.98;;;;;;;9.08;92.66;101385.03;5051084;28;20481;-73
2022/12/26 11:53:21;;;;;;;4.15;0.77;;;;;;;9.04;92.73;101388.41;5043343;28;20159;-73
2022/12/26 11:56:09;;;;;;;9.75;1.13;;;;;;;8.87;92.90;101395.75;5044895;28;20056;-73
2022/12/26 11:58:34;;;;;;;4.03;0.80;;;;;;;8.97;92.80;101391.69;5045781;28;20119;-72
2022/12/26 12:01:00;;;;;;;3.15;0.73;;;;;;;9.30;89.13;101397.94;5045002;28;20498;-72
2022/12/26 12:03:43;;;;;;;5.82;1.35;;;;;;;9.56;84.58;101396.09;5038070;28;20033;-72
2022/12/26 12:06:48;;;;;;;2.38;1.20;;;;;;;9.35;86.87;101402.50;5052565;28;20028;-74
2022/12/26 12:09:51;;;;;;;7.85;1.67;;;;;;;8.69;90.27;101405.66;5048703;28;20131;-74
2022/12/26 12:12:42;;;;;;;5.93;0.82;;;;;;;8.71;90.03;101409.22;5047230;28;20056;-72
2022/12/26 12:15:35;;;;;;;4.90;1.23;;;;;;;9.18;87.44;101401.97;5041545;28;20037;-73
2022/12/26 12:18:34;;;;;;;5.38;0.80;;;;;;;9.00;84.49;101409.28;5071863;28;20029;-73
2022/12/26 12:21:21;;;;;;;5.40;1.27;;;;;;;8.86;90.01;101403.59;5037372;28;20032;-74
2022/12/26 12:24:06;;;;;;;7.90;1.77;;;;;;;8.39;91.02;101407.22;5051860;28;20389;-73
2022/12/26 12:26:50;;;;;;;6.65;1.30;;;;;;;7.97;94.99;101417.09;5048076;28;20025;-74
2022/12/26 12:29:33;;;;;;;5.80;1.30;;;;;;;7.78;99.04;101421.66;5045650;28;20035;-74
2022/12/26 12:32:35;;;;;;;9.02;1.40;;;;;;;7.38;100.00;101420.13;5058166;28;20025;-73
2022/12/26 12:35:28;;;;;;;6.38;1.20;;;;;;;7.27;100.00;101427.59;5049921;28;20431;-74
2022/12/26 12:38:24;;;;;;;7.20;2.33;;;;;;;7.22;100.00;101434.38;5048840;28;20090;-74
2022/12/26 12:41:05;;;;;;;4.85;1.00;;;;;;;7.71;100.00;101430.13;5050372;28;20033;-73
2022/12/26 12:43:54;;;;;;;5.90;1.85;;;;;;;7.57;100.00;101443.59;5056681;28;20036;-72
2022/12/26 12:46:38;;;;;;;9.05;0.95;;;;;;;7.64;100.00;101447.34;5047063;28;20038;-73
2022/12/26 12:49:12;;;;;;;4.95;1.13;;;;;;;7.58;100.00;101444.47;5043886;28;20116;-74
2022/12/26 12:52:04;;;;;;;5.15;1.05;;;;;;;8.30;100.00;101438.38;5049734;28;20090;-73
2022/12/26 12:55:00;;;;;;;7.70;1.08;;;;;;;9.70;86.26;101460.47;5049499;28;20025;-72
2022/12/26 12:57:48;;;;;;;8.68;1.45;;;;;;;10.63;72.87;101464.00;5046213;28;20039;-73
2022/12/26 13:00:22;;;;;;;4.00;0.98;;;;;;;11.07;65.53;101462.44;5042758;28;20021;-74
2022/12/26 13:02:54;;;;;;;;;;;;;;;11.04;62.32;101465.91;5048519;28;20047;-72
2022/12/26 13:05:29;;;;;;;7.00;0.95;;;;;;;10.20;64.37;101461.88;5048120;28;19916;-72
2022/12/26 13:08:10;;;;;;;4.47;1.35;;;;;;;8.55;72.66;101468.16;5058083;28;20029;-72
2022/12/26 13:11:03;;;;;;;9.75;1.50;;;;;;;7.94;81.50;101483.41;5049766;28;20023;-72
2022/12/26 13:13:36;;;;;;;5.03;0.93;;;;;;;8.14;82.57;101480.59;5046937;28;20044;-72
2022/12/26 13:16:14;;;;;;;3.83;1.20;;;;;;;8.92;76.27;101482.50;5052466;28;20032;-72
2022/12/26 13:18:54;;;;;;;2.42;0.63;;;;;;;9.47;67.60;101483.44;5046944;28;20101;-72
2022/12/26 13:21:47;;;;;;;3.97;0.80;;;;;;;9.94;62.76;101480.44;5049683;28;20043;-73
2022/12/26 13:24:24;;;;;;;6.47;1.27;;;;;;;10.28;60.69;101482.31;5039937;28;20121;-73
2022/12/26 13:27:02;;;;;;;9.50;1.17;;;;;;;10.30;61.16;101480.59;5050981;28;20033;-72
2022/12/26 13:29:33;;;;;;;5.65;1.15;;;;;;;10.61;60.73;101483.22;5055615;28;20120;-72
2022/12/26 13:32:03;;;;;;;11.38;1.83;;;;;;;11.04;58.80;101500.16;5050645;28;20024;-72
2022/12/26 13:34:29;;;;;;;2.35;1.20;;;;;;;11.10;57.97;101497.66;5039204;28;20151;-73
2022/12/26 13:36:59;;;;;;;7.85;1.70;;;;;;;11.13;57.54;101495.06;5042776;28;21981;-72
2022/12/26 13:39:24;;;;;;;5.10;1.30;;;;;;;11.38;57.44;101495.69;5061367;28;20036;-74
2022/12/26 13:44:51;;;;;;;5.57;0.73;;;;;;;10.44;58.06;101519.59;5045719;28;20771;-72
2022/12/26 13:47:31;;;;;;;3.30;0.73;;;;;;;10.53;58.95;101518.97;5046372;28;20036;-71
2022/12/26 13:49:57;;;;;;;7.95;1.20;;;;;;;9.93;59.85;101521.63;5052006;28;20394;-71